Palau, PW

81°F / 27°C
Scattered Clouds
Heat Index: 86°F / 30°C
Humidity: 77%
Dew Point: 73°F / 23°C
Wind: ENE at 10 mph / 17 km/h
Pressure: 29.77 in / 1008 hPa (Rising)
Visibility: 10.0 miles / 16.1 kilometers
Clouds: Scattered Clouds (SCT) : 4100 ft / 1249 m
Yesterday's Maximum: 87°F / 31°C
Yesterday's Minimum: 80°F / 27°C approx.
Yesterday's Cooling Degree Days: 19 approx.
UV: 0 out of 16
Sunrise:6:20 AM +09
Sunset:6:07 PM +09
Moon Rise:11:21 AM +09
Moon Set:11:50 PM +09
Moon Phase Waxing Crescent
Marine Forecast & Tides
NOAA Weather Radio
No local feed.
METAR PGUM 240854Z 07009KT 10SM SCT041 27/23 A2979 RMK AO2 SLP080 T02720228 53011
As of: 6:54 PM ChST on January 24, 2018
Observed at: Guam Agana, GU

View Station's History

Current Radar


Region Default Local
No Yes
No Yes

View Full Screen WunderMap

Forecast

Today
chancetstorms
84° | 78°F
29° | 26°C
Friday
partlycloudy
85° | 78°F
29° | 26°C
Saturday
chancetstorms
85° | 77°F
29° | 25°C
Tomorrow is forecast to be
nearly the same temperature as today.
No Yes

Scientific Forecaster Discussion

Warnings & Notices

There are no active warnings for this location at this time.

View Palau Advisories

Features

Weather Apps

WunderRadio

Weather Underground Apps
Check out our wide variety of mobile and setup applications.

Weather Underground Applications

Top of Page

© Copyright 2018
The Weather Company, LLC